Burlington, New Jersey
Current Conditions -  °F | °C
As of 4:54 AM on Saturday 29 Nov 2014 (Local Time) from KPNE Reporting Station
Clear Clear  
Wind Chill: 23°   Ceiling: Unl
Heat Index: 23°   Visibility: 10mi
Dew Point: 15°   Wind: 3mph
Humidity: 72%   Direction: 60°ENE
Pressure: 30.34"   Gusts: NA
Location:  40.08°N, 74.86°W
Report Text: KPNE 290954Z AUTO 06003KT 10SM CLR M05/M09 A3034 RMK AO2 SLP275 T10501094 TSNO
Loading
Personal Weather Stations






























Interactive Weather Map New forecast layout! Learn more

10-Day Weather Forecast

Advertisements
Track Severe Weather on mobile